createdAt,value
2018-01-30T00:00:10.576Z,1.60
2018-01-30T00:02:38.112Z,1.40
2018-01-30T00:05:05.643Z,1.47
2018-01-30T00:07:33.970Z,1.57
2018-01-30T00:10:01.494Z,1.87
2018-01-30T00:12:29.053Z,1.70
2018-01-30T00:14:56.589Z,1.77
2018-01-30T00:17:24.141Z,1.10
2018-01-30T00:19:51.677Z,1.60
2018-01-30T00:22:19.228Z,1.70
2018-01-30T00:24:46.752Z,1.87
2018-01-30T00:27:14.301Z,1.60
2018-01-30T00:29:41.816Z,1.93
2018-01-30T00:32:09.376Z,1.83
2018-01-30T00:34:36.903Z,1.47
2018-01-30T00:37:04.425Z,1.80
2018-01-30T00:39:31.973Z,1.83
2018-01-30T00:41:59.504Z,2.00
2018-01-30T00:44:27.053Z,1.63
2018-01-30T00:46:54.580Z,2.20
2018-01-30T00:49:22.136Z,1.60
2018-01-30T00:51:49.670Z,2.10
2018-01-30T00:54:17.989Z,1.50
2018-01-30T00:56:45.515Z,1.77
2018-01-30T00:59:13.830Z,1.57
2018-01-30T01:01:41.356Z,2.20
2018-01-30T01:04:08.900Z,1.77
2018-01-30T01:06:37.190Z,1.83
2018-01-30T01:09:04.797Z,1.63
2018-01-30T01:11:32.333Z,2.03
2018-01-30T01:14:00.648Z,2.07
2018-01-30T01:16:28.180Z,2.20
2018-01-30T01:18:55.739Z,2.17
2018-01-30T01:21:23.259Z,2.13
2018-01-30T01:23:50.812Z,2.73
2018-01-30T01:26:18.340Z,2.30
2018-01-30T01:28:45.881Z,2.90
2018-01-30T01:31:13.409Z,2.70
2018-01-30T01:33:40.964Z,2.73
2018-01-30T01:36:08.492Z,3.27
2018-01-30T01:38:36.789Z,2.77
2018-01-30T01:41:04.332Z,2.90
2018-01-30T01:43:32.633Z,2.40
2018-01-30T01:46:00.186Z,2.03
2018-01-30T01:48:27.712Z,2.80
2018-01-30T01:50:56.016Z,2.87
2018-01-30T01:53:23.546Z,2.90
2018-01-30T01:55:51.860Z,2.27
2018-01-30T01:58:19.390Z,2.73
2018-01-30T02:00:47.690Z,2.87
2018-01-30T02:03:15.253Z,2.57
2018-01-30T02:05:42.814Z,2.47
2018-01-30T02:08:10.345Z,2.83
2018-01-30T02:10:38.656Z,2.70
2018-01-30T02:13:06.181Z,2.60
2018-01-30T02:15:34.493Z,2.77
2018-01-30T02:18:02.021Z,2.83
2018-01-30T02:20:29.567Z,2.53
2018-01-30T02:22:57.861Z,3.00
2018-01-30T02:25:25.401Z,2.77
2018-01-30T02:27:53.702Z,2.70
2018-01-30T02:30:21.236Z,2.17
2018-01-30T02:32:49.544Z,2.60
2018-01-30T02:35:17.102Z,2.47
2018-01-30T02:37:44.629Z,1.93
2018-01-30T02:40:12.927Z,2.63
2018-01-30T02:42:40.472Z,1.90
2018-01-30T02:45:08.768Z,2.80
2018-01-30T02:47:36.322Z,2.40
2018-01-30T02:50:03.857Z,2.00
2018-01-30T02:52:32.164Z,2.37
2018-01-30T02:55:00.456Z,1.70
2018-01-30T02:57:38.502Z,1.83
2018-01-30T03:00:06.032Z,2.13
2018-01-30T03:02:33.621Z,1.80
2018-01-30T03:05:01.912Z,2.13
2018-01-30T03:07:30.221Z,1.50
2018-01-30T03:09:57.872Z,2.30
2018-01-30T03:12:25.408Z,2.20
2018-01-30T03:14:53.692Z,2.30
2018-01-30T03:17:21.236Z,2.40
2018-01-30T03:19:49.530Z,2.93
2018-01-30T03:22:17.069Z,2.33
2018-01-30T03:24:45.362Z,2.27
2018-01-30T03:27:12.909Z,2.77
2018-01-30T03:29:41.203Z,2.60
2018-01-30T03:32:08.752Z,1.90
2018-01-30T03:34:37.036Z,2.60
2018-01-30T03:37:04.574Z,2.40
2018-01-30T03:39:32.869Z,2.00
2018-01-30T03:42:00.414Z,2.43
2018-01-30T03:44:28.696Z,2.27
2018-01-30T03:46:57.010Z,2.43
2018-01-30T03:49:24.568Z,2.30
2018-01-30T03:51:52.105Z,1.60
2018-01-30T03:54:19.646Z,2.00
2018-01-30T03:56:47.937Z,2.40
2018-01-30T03:59:15.469Z,2.60
2018-01-30T04:01:43.749Z,2.83
2018-01-30T04:04:12.048Z,2.50
2018-01-30T04:06:39.561Z,2.03
2018-01-30T04:09:07.102Z,1.30
2018-01-30T04:11:34.622Z,1.10
2018-01-30T04:14:02.165Z,0.70
2018-01-30T04:16:30.445Z,1.00
2018-01-30T04:18:57.982Z,1.00
2018-01-30T04:21:26.273Z,0.50
2018-01-30T04:23:54.578Z,0.90
2018-01-30T04:26:22.093Z,0.90
2018-01-30T04:28:49.624Z,0.67
2018-01-30T04:31:17.133Z,0.73
2018-01-30T04:33:44.671Z,0.80
2018-01-30T04:36:12.964Z,0.90
2018-01-30T04:38:40.501Z,1.03
2018-01-30T04:41:08.016Z,1.00
2018-01-30T04:43:35.557Z,0.67
2018-01-30T04:46:03.078Z,1.03
2018-01-30T04:48:31.408Z,0.90
2018-01-30T04:50:58.928Z,1.20
2018-01-30T04:53:27.263Z,1.00
2018-01-30T04:55:54.795Z,0.67
2018-01-30T04:58:22.323Z,1.40
2018-01-30T05:00:49.909Z,0.60
2018-01-30T05:03:17.413Z,1.00
2018-01-30T05:05:44.949Z,1.10
2018-01-30T05:08:12.471Z,0.77
2018-01-30T05:10:40.007Z,0.90
2018-01-30T05:13:08.291Z,0.90
2018-01-30T05:15:35.829Z,0.70
2018-01-30T05:18:03.405Z,0.97
2018-01-30T05:20:31.713Z,1.20
2018-01-30T05:22:59.237Z,1.50
2018-01-30T05:25:27.533Z,1.10
2018-01-30T05:27:55.058Z,1.37
2018-01-30T05:30:23.355Z,1.80
2018-01-30T05:32:50.874Z,1.70
2018-01-30T05:35:18.414Z,1.33
2018-01-30T05:37:45.929Z,1.20
2018-01-30T05:40:13.466Z,1.37
2018-01-30T05:42:41.751Z,1.90
2018-01-30T05:45:10.050Z,1.67
2018-01-30T05:47:37.569Z,1.60
2018-01-30T05:50:05.117Z,1.50
2018-01-30T05:52:32.643Z,1.63
2018-01-30T05:55:00.161Z,1.40
2018-01-30T05:57:28.458Z,1.10
2018-01-30T05:59:55.972Z,1.60
2018-01-30T06:02:23.508Z,1.50
2018-01-30T06:04:51.025Z,1.40
2018-01-30T06:07:18.556Z,1.37
2018-01-30T06:09:46.837Z,1.53
2018-01-30T06:12:15.146Z,1.80
2018-01-30T06:14:42.670Z,1.60
2018-01-30T06:17:11.018Z,1.40
2018-01-30T06:19:38.540Z,1.77
2018-01-30T06:22:06.072Z,1.57
2018-01-30T06:24:34.353Z,1.80
2018-01-30T06:27:01.893Z,1.87
2018-01-30T06:29:30.191Z,1.60
2018-01-30T06:31:57.727Z,1.90
2018-01-30T06:34:26.008Z,1.83
2018-01-30T06:36:54.311Z,1.60
2018-01-30T06:39:21.834Z,2.10
2018-01-30T06:41:50.128Z,2.10
2018-01-30T06:44:17.645Z,2.23
2018-01-30T06:46:45.176Z,2.23
2018-01-30T06:49:12.749Z,1.60
2018-01-30T06:51:40.302Z,1.77
2018-01-30T06:54:07.822Z,2.00
2018-01-30T06:56:35.373Z,2.67
2018-01-30T06:59:03.657Z,2.63
2018-01-30T07:01:31.187Z,2.93
2018-01-30T07:03:58.717Z,2.50
2018-01-30T07:06:26.261Z,2.70
2018-01-30T07:08:53.783Z,2.50
2018-01-30T07:11:21.317Z,2.80
2018-01-30T07:13:48.835Z,2.23
2018-01-30T07:16:16.371Z,2.50
2018-01-30T07:18:43.888Z,3.23
2018-01-30T07:21:11.408Z,2.20
2018-01-30T07:23:38.954Z,2.97
2018-01-30T07:26:06.465Z,2.87
2018-01-30T07:28:34.001Z,2.90
2018-01-30T07:31:01.522Z,2.80
2018-01-30T07:33:29.061Z,2.70
2018-01-30T07:35:56.585Z,2.80
2018-01-30T07:38:24.130Z,2.47
2018-01-30T07:40:51.655Z,2.13
2018-01-30T07:43:19.229Z,2.70
2018-01-30T07:45:46.759Z,2.33
2018-01-30T07:48:14.304Z,2.13
2018-01-30T07:50:42.600Z,2.47
2018-01-30T07:53:10.146Z,2.40
2018-01-30T07:55:37.672Z,2.23
2018-01-30T07:58:05.216Z,2.20
2018-01-30T08:00:32.743Z,2.43
2018-01-30T08:03:00.294Z,2.30
2018-01-30T08:05:27.809Z,2.70
2018-01-30T08:07:55.361Z,2.50
2018-01-30T08:10:22.888Z,2.60
2018-01-30T08:12:50.425Z,2.40
2018-01-30T08:15:17.973Z,2.57
2018-01-30T08:17:45.523Z,2.50
2018-01-30T08:20:13.804Z,2.40
2018-01-30T08:22:42.104Z,2.73
2018-01-30T08:25:09.627Z,2.60
2018-01-30T08:27:37.931Z,2.93
2018-01-30T08:30:05.456Z,2.43
2018-01-30T08:32:33.851Z,2.87
2018-01-30T08:35:01.373Z,2.80
2018-01-30T08:37:28.909Z,3.20
2018-01-30T08:39:56.429Z,2.37
2018-01-30T08:42:23.973Z,2.57
2018-01-30T08:44:52.253Z,3.27
2018-01-30T08:47:20.571Z,2.27
2018-01-30T08:49:48.093Z,2.67
2018-01-30T08:52:15.630Z,2.50
2018-01-30T08:54:43.921Z,3.07
2018-01-30T08:57:12.233Z,2.83
2018-01-30T08:59:39.761Z,3.53
2018-01-30T09:02:07.306Z,2.40
2018-01-30T09:04:35.602Z,2.97
2018-01-30T09:07:03.140Z,3.27
2018-01-30T09:09:31.437Z,2.77
2018-01-30T09:11:58.976Z,4.77
2018-01-30T09:14:27.263Z,2.80
2018-01-30T09:16:54.797Z,3.43
2018-01-30T09:19:22.333Z,2.80
2018-01-30T09:21:49.857Z,3.37
2018-01-30T09:24:17.402Z,2.40
2018-01-30T09:26:44.925Z,2.47
2018-01-30T09:29:12.471Z,2.60
2018-01-30T09:31:40.002Z,2.80
2018-01-30T09:34:07.553Z,2.50
2018-01-30T09:36:35.081Z,2.80
2018-01-30T09:39:03.394Z,2.60
2018-01-30T09:41:30.913Z,2.13
2018-01-30T09:43:58.486Z,2.30
2018-01-30T09:46:26.017Z,2.20
2018-01-30T09:48:54.326Z,1.87
2018-01-30T09:51:21.844Z,2.27
2018-01-30T09:53:50.178Z,1.97
2018-01-30T09:56:17.693Z,2.30
2018-01-30T09:58:46.002Z,2.60
2018-01-30T10:01:13.570Z,2.33
2018-01-30T10:03:41.109Z,3.00
2018-01-30T10:06:08.642Z,2.70
2018-01-30T10:08:36.946Z,2.53
2018-01-30T10:11:04.474Z,3.03
2018-01-30T10:13:32.786Z,2.97
2018-01-30T10:16:00.323Z,2.63
2018-01-30T10:18:27.906Z,2.50
2018-01-30T10:20:55.428Z,2.63
2018-01-30T10:23:23.728Z,2.80
2018-01-30T10:25:51.251Z,2.63
2018-01-30T10:28:18.788Z,3.60
2018-01-30T10:30:46.300Z,2.50
2018-01-30T10:33:13.841Z,2.77
2018-01-30T10:35:42.128Z,2.60
2018-01-30T10:38:09.670Z,2.90
2018-01-30T10:40:37.960Z,2.43
2018-01-30T10:43:05.513Z,2.50
2018-01-30T10:45:33.805Z,1.80
2018-01-30T10:48:01.349Z,2.50
2018-01-30T10:50:29.634Z,2.10
2018-01-30T10:52:57.170Z,1.70
2018-01-30T10:55:25.453Z,2.00
2018-01-30T10:57:53.764Z,2.00
2018-01-30T11:00:21.272Z,2.40
2018-01-30T11:02:48.809Z,2.00
2018-01-30T11:05:16.324Z,1.87
2018-01-30T11:07:43.861Z,2.00
2018-01-30T11:10:12.149Z,1.70
2018-01-30T11:12:39.656Z,2.23
2018-01-30T11:15:07.201Z,1.70
2018-01-30T11:17:34.729Z,1.70
2018-01-30T11:20:02.272Z,2.30
2018-01-30T11:22:30.555Z,1.90
2018-01-30T11:24:58.101Z,2.40
2018-01-30T11:27:26.399Z,2.20
2018-01-30T11:29:53.952Z,2.53
2018-01-30T11:32:21.469Z,2.30
2018-01-30T11:34:49.010Z,2.30
2018-01-30T11:37:16.552Z,2.10
2018-01-30T11:39:44.089Z,2.00
2018-01-30T11:42:11.609Z,1.90
2018-01-30T11:44:39.151Z,2.23
2018-01-30T11:47:06.683Z,1.30
2018-01-30T11:49:34.226Z,1.47
2018-01-30T11:52:01.745Z,1.40
2018-01-30T11:54:29.301Z,0.80
2018-01-30T11:56:56.826Z,0.90
2018-01-30T11:59:24.348Z,0.83
2018-01-30T12:01:51.889Z,0.97
2018-01-30T12:04:20.176Z,1.00
2018-01-30T12:06:48.483Z,1.17
2018-01-30T12:09:16.009Z,1.53
2018-01-30T12:11:43.550Z,1.30
2018-01-30T12:14:11.849Z,1.27
2018-01-30T12:16:39.396Z,1.00
2018-01-30T12:19:07.681Z,1.13
2018-01-30T12:21:35.234Z,1.10
2018-01-30T12:24:03.517Z,1.20
2018-01-30T12:26:31.099Z,1.30
2018-01-30T12:28:58.626Z,1.03
2018-01-30T12:31:26.174Z,1.30
2018-01-30T12:33:54.452Z,1.30
2018-01-30T12:36:22.797Z,1.20
2018-01-30T12:38:50.338Z,1.30
2018-01-30T12:41:17.880Z,1.20
2018-01-30T12:43:45.415Z,1.20
2018-01-30T12:46:12.953Z,1.60
2018-01-30T12:48:41.240Z,1.50
2018-01-30T12:51:09.553Z,1.40
2018-01-30T12:53:37.095Z,1.57
2018-01-30T12:56:04.643Z,1.20
2018-01-30T12:58:32.185Z,1.40
2018-01-30T13:01:00.479Z,1.30
2018-01-30T13:03:28.017Z,1.10
2018-01-30T13:05:56.304Z,1.60
2018-01-30T13:08:24.604Z,1.30
2018-01-30T13:10:52.134Z,1.30
2018-01-30T13:13:20.447Z,1.30
2018-01-30T13:15:48.725Z,1.10
2018-01-30T13:18:16.268Z,1.43
2018-01-30T13:20:43.801Z,1.63
2018-01-30T13:23:12.125Z,1.70
2018-01-30T13:25:39.647Z,1.33
2018-01-30T13:28:07.191Z,1.30
2018-01-30T13:30:35.481Z,1.97
2018-01-30T13:33:03.023Z,1.47
2018-01-30T13:35:31.313Z,1.63
2018-01-30T13:37:59.630Z,2.03
2018-01-30T13:40:27.155Z,1.60
2018-01-30T13:42:54.708Z,1.80
2018-01-30T13:45:23.001Z,2.40
2018-01-30T13:47:50.526Z,1.80
2018-01-30T13:50:18.842Z,1.50
2018-01-30T13:52:46.361Z,1.60
2018-01-30T13:55:14.673Z,1.93
2018-01-30T13:57:42.193Z,1.90
2018-01-30T14:00:10.502Z,2.00
2018-01-30T14:02:38.788Z,2.00
2018-01-30T14:05:06.332Z,1.63
2018-01-30T14:07:33.865Z,2.23
2018-01-30T14:10:02.180Z,2.00
2018-01-30T14:12:29.697Z,2.00
2018-01-30T14:14:58.029Z,2.10
2018-01-30T14:17:25.562Z,1.80
2018-01-30T14:19:53.110Z,1.23
2018-01-30T14:22:20.628Z,1.67
2018-01-30T14:24:48.161Z,2.00
2018-01-30T14:27:15.692Z,2.00
2018-01-30T14:29:43.234Z,2.20
2018-01-30T14:32:11.518Z,1.87
2018-01-30T14:34:39.056Z,2.10
2018-01-30T14:37:07.339Z,1.90
2018-01-30T14:39:35.656Z,1.93
2018-01-30T14:42:03.220Z,1.87
2018-01-30T14:44:30.744Z,2.03
2018-01-30T14:46:58.306Z,2.00
2018-01-30T14:49:25.842Z,1.90
2018-01-30T14:51:54.158Z,2.30
2018-01-30T14:54:21.733Z,2.00
2018-01-30T14:56:49.287Z,2.20
2018-01-30T14:59:16.821Z,1.97
2018-01-30T15:01:44.382Z,2.23
2018-01-30T15:04:11.908Z,2.77
2018-01-30T15:06:39.468Z,2.20
2018-01-30T15:09:07.763Z,2.67
2018-01-30T15:11:35.294Z,2.37
2018-01-30T15:14:02.839Z,2.50
2018-01-30T15:16:30.366Z,2.57
2018-01-30T15:18:57.921Z,2.77
2018-01-30T15:21:25.444Z,2.50
2018-01-30T15:23:53.767Z,1.90
2018-01-30T15:26:21.302Z,1.77
2018-01-30T15:28:48.849Z,2.23
2018-01-30T15:31:16.369Z,1.93
2018-01-30T15:33:43.926Z,2.30
2018-01-30T15:36:11.466Z,1.80
2018-01-30T15:38:39.013Z,2.20
2018-01-30T15:41:06.566Z,2.00
2018-01-30T15:43:34.120Z,2.20
2018-01-30T15:46:01.634Z,2.63
2018-01-30T15:48:29.220Z,2.83
2018-01-30T15:50:56.750Z,2.30
2018-01-30T15:53:24.304Z,2.40
2018-01-30T15:55:51.831Z,2.20
2018-01-30T15:58:19.357Z,3.17
2018-01-30T16:00:46.902Z,3.07
2018-01-30T16:03:15.189Z,4.03
2018-01-30T16:05:42.728Z,3.00
2018-01-30T16:08:10.241Z,2.97
2018-01-30T16:10:37.793Z,2.90
2018-01-30T16:13:06.106Z,2.37
2018-01-30T16:15:33.740Z,2.40
2018-01-30T16:18:01.335Z,2.50
2018-01-30T16:20:29.719Z,2.20
2018-01-30T16:22:58.135Z,2.50
2018-01-30T16:25:25.726Z,2.17
2018-01-30T16:27:53.339Z,2.40
2018-01-30T16:30:21.715Z,2.03
2018-01-30T16:32:49.331Z,2.67
2018-01-30T16:35:16.935Z,2.63
2018-01-30T16:37:45.330Z,1.53
2018-01-30T16:40:16.447Z,2.27
2018-01-30T16:42:44.081Z,3.03
2018-01-30T16:45:11.666Z,5.60
2018-01-30T16:47:39.211Z,4.20
2018-01-30T16:50:07.492Z,2.97
2018-01-30T16:52:35.799Z,2.77
2018-01-30T16:55:03.349Z,2.90
2018-01-30T16:57:31.738Z,3.10
2018-01-30T16:59:59.256Z,2.80
2018-01-30T17:02:27.571Z,3.13
2018-01-30T17:04:55.222Z,3.10
2018-01-30T17:07:22.932Z,2.63
2018-01-30T17:09:50.547Z,2.60
2018-01-30T17:12:18.195Z,2.67
2018-01-30T17:14:45.749Z,3.00
2018-01-30T17:17:13.274Z,3.00
2018-01-30T17:19:40.941Z,2.90
2018-01-30T17:22:08.466Z,2.80
2018-01-30T17:24:36.007Z,3.40
2018-01-30T17:27:03.528Z,3.27
2018-01-30T17:29:31.828Z,3.27
2018-01-30T17:31:59.349Z,3.03
2018-01-30T17:34:26.894Z,3.63
2018-01-30T17:36:54.466Z,3.53
2018-01-30T17:39:22.071Z,3.50
2018-01-30T17:41:49.593Z,4.33
2018-01-30T17:44:17.905Z,4.80
2018-01-30T17:46:45.437Z,6.27
2018-01-30T17:49:13.734Z,6.63
2018-01-30T17:51:41.343Z,19.60
2018-01-30T17:54:08.876Z,11.97
2018-01-30T17:56:36.431Z,14.30
2018-01-30T17:59:03.956Z,12.67
2018-01-30T18:01:32.303Z,8.93
2018-01-30T18:03:59.832Z,12.47
2018-01-30T18:06:27.422Z,14.50
2018-01-30T18:08:55.733Z,19.03
2018-01-30T18:11:23.289Z,15.13
2018-01-30T18:13:50.814Z,12.63
2018-01-30T18:16:18.368Z,12.87
2018-01-30T18:18:45.905Z,13.30
2018-01-30T18:21:13.440Z,13.93
2018-01-30T18:23:41.008Z,10.03
2018-01-30T18:26:08.593Z,10.93
2018-01-30T18:28:36.124Z,12.47
2018-01-30T18:31:03.665Z,15.07
2018-01-30T18:33:31.241Z,15.43
2018-01-30T18:35:58.777Z,12.13
2018-01-30T18:38:26.321Z,11.90
2018-01-30T18:40:54.632Z,8.70
2018-01-30T18:43:22.181Z,9.70
2018-01-30T18:45:49.783Z,8.37
2018-01-30T18:48:17.351Z,8.03
2018-01-30T18:50:44.942Z,8.03
2018-01-30T18:53:12.500Z,7.27
2018-01-30T18:55:40.027Z,9.83
2018-01-30T18:58:07.636Z,11.10
2018-01-30T19:00:35.204Z,12.23
2018-01-30T19:03:02.759Z,14.13
2018-01-30T19:05:30.378Z,10.40
2018-01-30T19:07:58.780Z,9.53
2018-01-30T19:10:26.291Z,11.00
2018-01-30T19:12:53.888Z,9.50
2018-01-30T19:15:22.199Z,11.20
2018-01-30T19:17:49.746Z,11.73
2018-01-30T19:20:17.335Z,10.43
2018-01-30T19:22:44.930Z,11.17
2018-01-30T19:25:13.216Z,12.83
2018-01-30T19:27:41.529Z,11.77
2018-01-30T19:30:09.073Z,15.70
2018-01-30T19:32:36.644Z,16.10
2018-01-30T19:35:04.225Z,20.70
2018-01-30T19:37:31.771Z,20.10
2018-01-30T19:39:59.360Z,19.33
2018-01-30T19:42:26.905Z,21.00
2018-01-30T19:44:54.496Z,21.80
2018-01-30T19:47:22.825Z,19.07
2018-01-30T19:49:50.361Z,19.27
2018-01-30T19:52:17.926Z,21.90
2018-01-30T19:54:45.519Z,19.40
2018-01-30T19:57:13.075Z,18.77
2018-01-30T19:59:40.709Z,17.80
2018-01-30T20:02:08.246Z,18.10
2018-01-30T20:04:35.816Z,17.63
2018-01-30T20:07:03.345Z,17.10
2018-01-30T20:09:31.666Z,18.00
2018-01-30T20:11:59.206Z,15.00
2018-01-30T20:14:26.809Z,13.83
2018-01-30T20:16:54.393Z,17.07
2018-01-30T20:19:22.764Z,15.10
2018-01-30T20:21:50.359Z,14.00
2018-01-30T20:24:17.921Z,13.17
2018-01-30T20:26:45.504Z,14.07
2018-01-30T20:29:13.113Z,14.17
2018-01-30T20:31:41.477Z,13.80
2018-01-30T20:34:09.121Z,14.13
2018-01-30T20:36:36.657Z,13.90
2018-01-30T20:39:04.210Z,12.97
2018-01-30T20:41:31.808Z,12.13
2018-01-30T20:43:59.406Z,12.47
2018-01-30T20:46:26.994Z,11.73
2018-01-30T20:48:54.596Z,11.77
2018-01-30T20:51:22.956Z,12.60
2018-01-30T20:53:50.548Z,13.23
2018-01-30T20:56:18.905Z,12.43
2018-01-30T20:58:46.434Z,14.23
2018-01-30T21:01:13.989Z,14.20
2018-01-30T21:03:41.567Z,14.50
2018-01-30T21:06:09.166Z,15.80
2018-01-30T21:08:36.752Z,17.53
2018-01-30T21:11:04.303Z,17.87
2018-01-30T21:13:31.842Z,17.33
2018-01-30T21:16:00.152Z,18.40
2018-01-30T21:18:27.744Z,22.23
2018-01-30T21:20:55.293Z,22.33
2018-01-30T21:23:23.549Z,24.73
2018-01-30T21:25:51.096Z,22.77
2018-01-30T21:28:18.624Z,21.73
2018-01-30T21:30:46.969Z,22.63
2018-01-30T21:33:14.549Z,21.80
2018-01-30T21:35:43.608Z,23.17
2018-01-30T21:38:11.395Z,24.63
2018-01-30T21:40:39.730Z,22.20
2018-01-30T21:43:07.307Z,22.93
2018-01-30T21:45:34.901Z,20.67
2018-01-30T21:48:02.468Z,21.87
2018-01-30T21:50:30.835Z,19.93
2018-01-30T21:52:58.363Z,25.50
2018-01-30T21:55:25.956Z,24.47
2018-01-30T21:57:53.497Z,24.93
2018-01-30T22:00:21.148Z,24.67
2018-01-30T22:02:48.683Z,24.07
2018-01-30T22:05:16.244Z,21.60
2018-01-30T22:07:43.825Z,24.23
2018-01-30T22:10:11.648Z,25.17
2018-01-30T22:12:39.227Z,23.83
2018-01-30T22:15:06.813Z,23.20
2018-01-30T22:17:34.354Z,25.50
2018-01-30T22:20:02.047Z,28.43
2018-01-30T22:22:29.650Z,28.07
2018-01-30T22:24:57.242Z,29.27
2018-01-30T22:27:24.860Z,26.53
2018-01-30T22:29:52.421Z,28.47
2018-01-30T22:32:20.002Z,22.80
2018-01-30T22:34:47.545Z,22.23
2018-01-30T22:37:15.261Z,17.40
2018-01-30T22:39:42.917Z,16.43
2018-01-30T22:42:10.445Z,15.43
2018-01-30T22:44:37.985Z,14.30
